createdAt,value
2019-03-11T00:00:47.166Z,4.60
2019-03-11T00:03:16.557Z,5.00
2019-03-11T00:05:45.900Z,5.10
2019-03-11T00:08:15.192Z,6.47
2019-03-11T00:10:44.503Z,3.87
2019-03-11T00:13:13.819Z,4.80
2019-03-11T00:15:43.112Z,5.03
2019-03-11T00:18:12.441Z,4.85
2019-03-11T00:20:41.773Z,6.50
2019-03-11T00:23:11.093Z,5.15
2019-03-11T00:25:40.398Z,6.60
2019-03-11T00:28:09.716Z,5.75
2019-03-11T00:30:39.095Z,7.75
2019-03-11T00:33:08.384Z,4.85
2019-03-11T00:35:37.710Z,4.80
2019-03-11T00:38:06.999Z,5.53
2019-03-11T00:40:36.325Z,6.60
2019-03-11T00:43:06.655Z,7.25
2019-03-11T00:45:35.976Z,6.70
2019-03-11T00:48:07.980Z,6.97
2019-03-11T00:50:37.284Z,9.43
2019-03-11T00:53:06.616Z,12.23
2019-03-11T00:55:35.924Z,5.45
2019-03-11T00:58:05.300Z,3.65
2019-03-11T01:00:38.219Z,5.62
2019-03-11T01:03:07.680Z,4.60
2019-03-11T01:05:37.080Z,8.10
2019-03-11T01:08:06.468Z,4.87
2019-03-11T01:10:35.768Z,4.20
2019-03-11T01:13:05.423Z,4.42
2019-03-11T01:15:34.724Z,6.47
2019-03-11T01:18:04.047Z,5.60
2019-03-11T01:20:33.352Z,7.92
2019-03-11T01:23:02.686Z,2.90
2019-03-11T01:25:51.351Z,7.22
2019-03-11T01:28:20.704Z,5.78
2019-03-11T01:30:50.021Z,4.62
2019-03-11T01:33:19.340Z,5.22
2019-03-11T01:35:48.654Z,8.45
2019-03-11T01:38:17.988Z,2.95
2019-03-11T01:40:48.933Z,6.03
2019-03-11T01:43:21.245Z,8.95
2019-03-11T01:45:49.271Z,6.22
2019-03-11T01:48:18.576Z,4.05
2019-03-11T01:50:47.875Z,6.95
2019-03-11T01:53:18.546Z,4.80
2019-03-11T01:55:47.896Z,9.23
2019-03-11T01:58:17.215Z,6.00
2019-03-11T02:00:46.605Z,4.53
2019-03-11T02:03:15.978Z,6.15
2019-03-11T02:05:45.272Z,6.90
2019-03-11T02:08:14.589Z,9.10
2019-03-11T02:10:43.899Z,8.45
2019-03-11T02:13:13.267Z,6.42
2019-03-11T02:15:42.612Z,4.20
2019-03-11T02:18:13.796Z,4.70
2019-03-11T02:20:44.766Z,7.55
2019-03-11T02:23:15.608Z,6.62
2019-03-11T02:28:16.167Z,6.15
2019-03-11T02:30:45.491Z,7.37
2019-03-11T02:33:14.784Z,6.30
2019-03-11T02:35:44.244Z,4.00
2019-03-11T02:38:13.577Z,5.05
2019-03-11T02:40:42.905Z,6.62
2019-03-11T02:43:12.188Z,5.05
2019-03-11T02:45:41.658Z,3.52
2019-03-11T02:48:10.952Z,4.30
2019-03-11T02:50:40.297Z,6.90
2019-03-11T02:53:09.592Z,8.00
2019-03-11T02:55:51.463Z,3.25
2019-03-11T02:58:33.326Z,10.45
2019-03-11T03:01:14.965Z,2.98
2019-03-11T03:03:51.412Z,6.50
2019-03-11T03:06:20.797Z,5.75
2019-03-11T03:08:50.102Z,4.83
2019-03-11T03:11:19.417Z,6.10
2019-03-11T03:14:01.242Z,3.85
2019-03-11T03:16:34.786Z,5.95
2019-03-11T03:19:03.102Z,4.78
2019-03-11T03:21:32.440Z,10.20
2019-03-11T03:24:01.767Z,8.58
2019-03-11T03:26:31.068Z,13.20
2019-03-11T03:29:00.389Z,8.35
2019-03-11T03:31:29.668Z,7.87
2019-03-11T03:33:58.977Z,6.55
2019-03-11T03:36:28.279Z,9.28
2019-03-11T03:38:57.605Z,23.02
2019-03-11T03:41:27.601Z,3.37
2019-03-11T03:43:56.920Z,7.43
2019-03-11T03:46:26.209Z,3.87
2019-03-11T03:48:55.534Z,7.47
2019-03-11T03:51:24.861Z,6.47
2019-03-11T03:54:13.528Z,7.22
2019-03-11T03:56:42.923Z,5.20
2019-03-11T03:59:12.223Z,5.75
2019-03-11T04:01:41.557Z,4.05
2019-03-11T04:04:10.854Z,8.55
2019-03-11T04:06:40.190Z,7.22
2019-03-11T04:09:09.477Z,6.35
2019-03-11T04:11:38.945Z,6.22
2019-03-11T04:14:08.409Z,4.55
2019-03-11T04:16:37.795Z,5.15
2019-03-11T04:19:07.103Z,5.20
2019-03-11T04:21:36.410Z,4.33
2019-03-11T04:24:05.701Z,4.65
2019-03-11T04:26:35.014Z,5.20
2019-03-11T04:29:04.495Z,4.83
2019-03-11T04:31:33.795Z,4.90
2019-03-11T04:34:03.098Z,9.08
2019-03-11T04:36:32.421Z,7.65
2019-03-11T04:39:01.745Z,8.45
2019-03-11T04:41:34.333Z,6.50
2019-03-11T04:44:06.989Z,6.15
2019-03-11T04:46:36.485Z,7.42
2019-03-11T04:49:05.808Z,7.65
2019-03-11T04:51:37.983Z,4.12
2019-03-11T04:54:07.280Z,9.38
2019-03-11T04:56:36.688Z,5.28
2019-03-11T04:59:13.403Z,4.75
2019-03-11T05:01:45.652Z,9.05
2019-03-11T05:04:17.663Z,4.70
2019-03-11T05:06:46.978Z,5.33
2019-03-11T05:09:16.267Z,7.08
2019-03-11T05:11:45.588Z,5.65
2019-03-11T05:14:14.892Z,5.12
2019-03-11T05:16:44.205Z,2.80
2019-03-11T05:19:13.509Z,2.62
2019-03-11T05:21:45.829Z,2.55
2019-03-11T05:24:15.116Z,4.40
2019-03-11T05:26:44.445Z,1.45
2019-03-11T05:29:13.765Z,3.80
2019-03-11T05:31:43.185Z,3.52
2019-03-11T05:34:14.039Z,3.45
2019-03-11T05:39:49.682Z,1.45
2019-03-11T05:42:18.990Z,1.92
2019-03-11T05:44:48.314Z,2.50
2019-03-11T05:47:20.518Z,2.08
2019-03-11T05:49:49.838Z,1.92
2019-03-11T05:52:19.161Z,1.45
2019-03-11T05:54:48.480Z,1.90
2019-03-11T05:57:17.781Z,1.47
2019-03-11T05:59:47.096Z,2.40
2019-03-11T06:02:16.424Z,1.77
2019-03-11T06:04:45.732Z,0.85
2019-03-11T06:07:15.051Z,2.47
2019-03-11T06:09:44.385Z,2.00
2019-03-11T06:12:15.236Z,1.25
2019-03-11T06:17:13.088Z,0.90
2019-03-11T06:19:42.403Z,1.52
2019-03-11T06:22:17.896Z,2.08
2019-03-11T06:24:47.241Z,1.30
2019-03-11T06:27:16.546Z,2.47
2019-03-11T06:29:45.934Z,1.15
2019-03-11T06:32:15.220Z,1.62
2019-03-11T06:34:47.395Z,0.60
2019-03-11T06:37:15.569Z,1.07
2019-03-11T06:39:44.867Z,0.62
2019-03-11T06:42:14.179Z,1.35
2019-03-11T06:44:45.015Z,0.95
2019-03-11T06:47:15.420Z,0.98
2019-03-11T06:49:44.714Z,0.78
2019-03-11T06:52:14.044Z,0.80
2019-03-11T06:54:43.346Z,1.52
2019-03-11T06:57:12.909Z,1.72
2019-03-11T06:59:42.228Z,0.50
2019-03-11T07:02:11.554Z,0.50
2019-03-11T07:04:42.229Z,0.53
2019-03-11T07:07:11.545Z,0.40
2019-03-11T07:09:41.839Z,1.12
2019-03-11T07:12:11.224Z,1.02
2019-03-11T07:14:40.595Z,1.52
2019-03-11T07:17:09.925Z,0.75
2019-03-11T07:19:39.215Z,0.50
2019-03-11T07:22:08.536Z,4.12
2019-03-11T07:24:37.870Z,0.93
2019-03-11T07:27:07.204Z,1.22
2019-03-11T07:29:36.642Z,2.08
2019-03-11T07:32:05.967Z,1.82
2019-03-11T07:34:35.285Z,1.40
2019-03-11T07:37:04.676Z,1.05
2019-03-11T07:39:53.395Z,2.25
2019-03-11T07:42:22.692Z,1.10
2019-03-11T07:44:52.018Z,0.75
2019-03-11T07:47:21.306Z,0.50
2019-03-11T07:49:50.796Z,1.60
2019-03-11T07:52:20.117Z,1.32
2019-03-11T07:54:49.433Z,2.30
2019-03-11T07:57:18.759Z,1.72
2019-03-11T07:59:48.069Z,2.00
2019-03-11T08:02:18.334Z,1.67
2019-03-11T08:04:48.040Z,1.07
2019-03-11T08:07:17.358Z,1.82
2019-03-11T08:09:46.668Z,1.72
2019-03-11T08:12:16.057Z,2.75
2019-03-11T08:14:45.347Z,1.62
2019-03-11T08:17:14.664Z,5.55
2019-03-11T08:19:51.019Z,1.40
2019-03-11T08:22:20.368Z,2.22
2019-03-11T08:24:49.703Z,0.88
2019-03-11T08:27:19.022Z,3.22
2019-03-11T08:29:48.317Z,1.82
2019-03-11T08:32:17.635Z,2.22
2019-03-11T08:34:46.929Z,2.35
2019-03-11T08:37:16.314Z,2.15
2019-03-11T08:39:45.637Z,1.32
2019-03-11T08:42:15.048Z,3.10
2019-03-11T08:44:44.363Z,2.00
2019-03-11T08:47:13.693Z,2.50
2019-03-11T08:49:42.991Z,1.40
2019-03-11T08:52:12.312Z,2.17
2019-03-11T08:54:41.625Z,1.92
2019-03-11T08:57:10.948Z,1.12
2019-03-11T08:59:40.344Z,1.95
2019-03-11T09:02:09.728Z,3.00
2019-03-11T09:04:43.659Z,2.27
2019-03-11T09:07:14.056Z,1.52
2019-03-11T09:09:43.377Z,2.50
2019-03-11T09:12:12.706Z,5.45
2019-03-11T09:14:42.024Z,1.80
2019-03-11T09:30:58.304Z,2.08
2019-03-11T09:33:27.700Z,2.20
2019-03-11T09:35:56.989Z,1.42
2019-03-11T09:38:26.305Z,1.87
2019-03-11T09:40:55.605Z,2.85
2019-03-11T09:43:27.072Z,1.40
2019-03-11T09:45:55.996Z,3.00
2019-03-11T09:48:25.320Z,1.45
2019-03-11T09:50:54.682Z,2.00
2019-03-11T09:53:24.077Z,0.85
2019-03-11T09:55:53.491Z,2.30
2019-03-11T09:58:22.812Z,2.20
2019-03-11T10:00:52.148Z,1.50
2019-03-11T10:03:21.572Z,0.60
2019-03-11T10:05:51.976Z,1.52
2019-03-11T10:08:21.267Z,2.05
2019-03-11T10:10:50.782Z,1.57
2019-03-11T10:13:21.159Z,1.75
2019-03-11T10:15:50.468Z,1.95
2019-03-11T10:18:19.793Z,2.40
2019-03-11T10:20:49.089Z,1.05
2019-03-11T10:23:18.443Z,0.82
2019-03-11T10:25:47.745Z,1.10
2019-03-11T10:28:17.072Z,1.00
2019-03-11T10:30:46.369Z,1.52
2019-03-11T10:33:15.698Z,1.50
2019-03-11T10:35:45.061Z,2.67
2019-03-11T10:38:14.376Z,1.37
2019-03-11T10:40:43.713Z,1.30
2019-03-11T10:43:13.000Z,1.35
2019-03-11T10:45:42.320Z,1.07
2019-03-11T10:48:11.646Z,1.72
2019-03-11T10:50:41.047Z,0.57
2019-03-11T10:53:10.526Z,0.37
2019-03-11T10:55:39.821Z,1.72
2019-03-11T10:58:09.140Z,1.98
2019-03-11T11:00:38.508Z,0.72
2019-03-11T11:03:07.900Z,1.85
2019-03-11T11:05:37.220Z,0.40
2019-03-11T11:08:06.595Z,1.98
2019-03-11T11:10:35.903Z,1.05
2019-03-11T11:13:05.324Z,1.30
2019-03-11T11:15:34.992Z,1.82
2019-03-11T11:18:04.460Z,0.55
2019-03-11T11:20:33.756Z,0.95
2019-03-11T11:23:03.204Z,1.85
2019-03-11T11:25:32.662Z,1.12
2019-03-11T11:28:01.980Z,1.12
2019-03-11T11:30:32.233Z,1.05
2019-03-11T11:35:42.200Z,1.75
2019-03-11T11:38:11.501Z,1.85
2019-03-11T11:40:40.816Z,2.15
2019-03-11T11:43:10.104Z,1.55
2019-03-11T11:45:39.456Z,1.75
2019-03-11T11:48:08.785Z,2.55
2019-03-11T11:50:38.149Z,3.37
2019-03-11T11:53:07.461Z,4.10
2019-03-11T11:55:36.762Z,1.37
2019-03-11T11:58:06.087Z,1.22
2019-03-11T12:00:40.102Z,0.90
2019-03-11T12:03:09.422Z,0.68
2019-03-11T12:05:38.768Z,2.95
2019-03-11T12:08:08.048Z,1.80
2019-03-11T12:10:37.366Z,0.95
2019-03-11T12:13:06.822Z,1.42
2019-03-11T12:15:36.228Z,1.85
2019-03-11T12:18:05.599Z,1.20
2019-03-11T12:20:34.984Z,3.05
2019-03-11T12:23:04.543Z,2.52
2019-03-11T12:25:33.830Z,2.00
2019-03-11T12:28:03.597Z,1.42
2019-03-11T12:30:34.129Z,1.60
2019-03-11T12:33:03.750Z,1.05
2019-03-11T12:35:33.119Z,0.65
2019-03-11T12:38:02.517Z,1.82
2019-03-11T12:40:31.900Z,1.07
2019-03-11T12:43:01.219Z,1.80
2019-03-11T12:45:30.693Z,3.52
2019-03-11T12:48:00.015Z,1.92
2019-03-11T12:50:33.572Z,1.45
2019-03-11T12:53:02.923Z,0.80
2019-03-11T12:55:32.342Z,1.25
2019-03-11T12:58:01.667Z,1.22
2019-03-11T13:00:30.985Z,1.42
2019-03-11T13:03:00.320Z,1.17
2019-03-11T13:05:29.701Z,1.37
2019-03-11T13:07:59.066Z,0.70
2019-03-11T13:10:30.336Z,1.65
2019-03-11T13:12:59.635Z,2.05
2019-03-11T13:15:29.215Z,1.52
2019-03-11T13:18:18.049Z,1.22
2019-03-11T13:20:47.380Z,1.87
2019-03-11T13:23:16.673Z,2.05
2019-03-11T13:25:45.988Z,1.27
2019-03-11T13:28:15.402Z,2.27
2019-03-11T13:30:44.699Z,2.22
2019-03-11T13:33:14.043Z,1.30
2019-03-11T13:35:43.344Z,1.12
2019-03-11T13:38:12.742Z,1.85
2019-03-11T13:40:42.131Z,1.22
2019-03-11T13:43:11.503Z,2.00
2019-03-11T13:45:40.916Z,1.32
2019-03-11T13:48:10.794Z,1.07
2019-03-11T13:50:40.117Z,1.20
2019-03-11T13:53:09.479Z,1.40
2019-03-11T13:55:38.872Z,0.93
2019-03-11T13:58:08.189Z,1.62
2019-03-11T14:00:37.490Z,2.52
2019-03-11T14:03:06.878Z,1.22
2019-03-11T14:05:36.212Z,4.65
2019-03-11T14:08:06.817Z,2.12
2019-03-11T14:10:36.173Z,2.92
2019-03-11T14:13:05.494Z,1.42
2019-03-11T14:15:34.814Z,1.57
2019-03-11T14:18:04.357Z,1.20
2019-03-11T14:20:33.760Z,1.40
2019-03-11T14:23:03.183Z,3.42
2019-03-11T14:25:32.512Z,1.02
2019-03-11T14:28:01.820Z,0.98
2019-03-11T14:30:31.386Z,2.67
2019-03-11T14:33:00.784Z,2.20
2019-03-11T14:35:30.262Z,2.30
2019-03-11T14:37:59.574Z,2.47
2019-03-11T14:40:29.026Z,1.62
2019-03-11T14:42:58.336Z,2.40
2019-03-11T14:45:27.685Z,4.85
2019-03-11T14:47:57.137Z,3.92
2019-03-11T14:50:26.488Z,2.35
2019-03-11T14:52:55.827Z,2.20
2019-03-11T14:55:25.231Z,2.15
2019-03-11T14:57:54.561Z,4.33
2019-03-11T15:00:23.915Z,2.17
2019-03-11T15:02:53.206Z,1.75
2019-03-11T15:05:22.615Z,2.58
2019-03-11T15:07:52.061Z,1.85
2019-03-11T15:10:21.672Z,2.47
2019-03-11T15:12:50.970Z,2.37
2019-03-11T15:15:25.016Z,2.17
2019-03-11T15:17:54.383Z,1.20
2019-03-11T15:20:23.848Z,1.57
2019-03-11T15:22:53.136Z,1.12
2019-03-11T15:25:22.643Z,0.65
2019-03-11T15:27:51.939Z,0.95
2019-03-11T15:30:23.481Z,2.25
2019-03-11T15:32:53.014Z,2.98
2019-03-11T15:35:45.772Z,1.85
2019-03-11T15:38:38.129Z,2.35
2019-03-11T15:41:07.467Z,1.72
2019-03-11T15:43:36.764Z,4.50
2019-03-11T15:46:06.077Z,4.00
2019-03-11T15:48:35.397Z,1.55
2019-03-11T15:51:05.755Z,1.57
2019-03-11T15:53:35.188Z,2.95
2019-03-11T15:56:04.535Z,2.90
2019-03-11T15:58:33.924Z,3.20
2019-03-11T16:01:03.286Z,2.42
2019-03-11T16:03:36.204Z,3.65
2019-03-11T16:06:03.669Z,2.90
2019-03-11T16:08:33.068Z,2.95
2019-03-11T16:11:02.359Z,2.40
2019-03-11T16:13:31.820Z,1.98
2019-03-11T16:16:01.247Z,3.70
2019-03-11T16:18:30.556Z,2.85
2019-03-11T16:20:59.895Z,2.20
2019-03-11T16:23:29.215Z,2.60
2019-03-11T16:25:58.605Z,2.62
2019-03-11T16:28:28.192Z,1.42
2019-03-11T16:30:57.696Z,3.37
2019-03-11T16:33:26.997Z,1.37
2019-03-11T16:35:56.321Z,2.35
2019-03-11T16:38:25.668Z,5.08
2019-03-11T16:40:54.951Z,1.72
2019-03-11T16:43:24.383Z,2.10
2019-03-11T16:45:53.744Z,3.12
2019-03-11T16:48:23.087Z,2.52
2019-03-11T16:50:52.386Z,2.40
2019-03-11T16:53:21.708Z,2.17
2019-03-11T16:55:52.696Z,2.15
2019-03-11T16:58:22.009Z,2.45
2019-03-11T17:00:52.951Z,2.72
2019-03-11T17:03:22.401Z,2.65
2019-03-11T17:05:51.690Z,5.22
2019-03-11T17:08:21.007Z,2.42
2019-03-11T17:10:50.318Z,1.67
2019-03-11T17:13:19.719Z,1.42
2019-03-11T17:15:49.096Z,2.47
2019-03-11T17:18:18.416Z,1.98
2019-03-11T17:20:47.823Z,2.00
2019-03-11T17:23:17.126Z,3.25
2019-03-11T17:25:46.468Z,5.47
2019-03-11T17:28:15.824Z,1.40
2019-03-11T17:30:45.152Z,1.98
2019-03-11T17:33:14.632Z,1.92
2019-03-11T17:35:44.021Z,2.83
2019-03-11T17:38:13.335Z,2.95
2019-03-11T17:40:42.817Z,1.75
2019-03-11T17:43:12.234Z,1.95
2019-03-11T17:45:41.620Z,3.60
2019-03-11T17:48:10.990Z,2.65
2019-03-11T17:50:40.317Z,3.55
2019-03-11T17:53:19.594Z,2.92
2019-03-11T17:55:41.097Z,1.80
2019-03-11T17:58:10.658Z,2.02
2019-03-11T18:00:55.076Z,2.10
2019-03-11T18:03:15.603Z,2.85
2019-03-11T18:05:45.105Z,1.85
2019-03-11T18:08:14.706Z,2.87
2019-03-11T18:10:44.069Z,1.82
2019-03-11T18:13:13.466Z,2.33
2019-03-11T18:15:42.970Z,2.87
2019-03-11T18:18:12.388Z,2.27
2019-03-11T18:20:41.705Z,1.72
2019-03-11T18:23:11.213Z,3.40
2019-03-11T18:25:40.508Z,3.37
2019-03-11T18:28:10.116Z,3.08
2019-03-11T18:30:39.623Z,2.02
2019-03-11T18:33:09.136Z,2.50
2019-03-11T18:35:38.722Z,3.40
2019-03-11T18:38:08.895Z,3.40
2019-03-11T18:40:38.365Z,2.02
2019-03-11T18:43:07.737Z,3.05
2019-03-11T18:45:37.104Z,3.92
2019-03-11T18:48:06.549Z,3.95
2019-03-11T18:50:35.927Z,3.40
2019-03-11T18:53:05.318Z,5.55
2019-03-11T18:55:34.749Z,4.03
2019-03-11T18:58:04.444Z,3.02
2019-03-11T19:00:34.890Z,3.65
2019-03-11T19:03:16.118Z,4.35
2019-03-11T19:05:45.471Z,2.90
2019-03-11T19:08:15.983Z,3.75
2019-03-11T19:10:45.357Z,4.40
2019-03-11T19:13:20.617Z,3.52
2019-03-11T19:15:49.916Z,3.60
2019-03-11T19:18:19.393Z,2.80
2019-03-11T19:20:48.731Z,2.92
2019-03-11T19:23:18.082Z,4.40
2019-03-11T19:25:54.547Z,2.55
2019-03-11T19:28:43.169Z,2.87
2019-03-11T19:31:12.478Z,2.37
2019-03-11T19:33:41.903Z,3.02
2019-03-11T19:36:11.330Z,3.40
2019-03-11T19:38:40.701Z,2.65
2019-03-11T19:41:11.222Z,2.40
2019-03-11T19:43:40.563Z,2.25
2019-03-11T19:46:09.972Z,1.98
2019-03-11T19:48:39.725Z,4.25
2019-03-11T19:51:09.280Z,2.50
2019-03-11T19:53:38.770Z,2.72
2019-03-11T19:56:08.128Z,3.80
2019-03-11T19:58:37.545Z,2.77
2019-03-11T20:01:07.501Z,1.60
2019-03-11T20:03:37.113Z,3.77
2019-03-11T20:06:08.181Z,3.33
2019-03-11T20:08:37.722Z,2.10
2019-03-11T20:11:08.840Z,5.60
2019-03-11T20:13:38.473Z,2.70
2019-03-11T20:16:08.714Z,4.78
2019-03-11T20:18:39.102Z,2.92
2019-03-11T20:21:09.887Z,4.08
2019-03-11T20:23:39.387Z,2.87
2019-03-11T20:26:10.764Z,6.57
2019-03-11T20:31:09.845Z,3.40
2019-03-11T20:33:39.339Z,9.98
2019-03-11T20:36:20.101Z,2.20
2019-03-11T20:38:42.747Z,2.98
2019-03-11T20:41:12.879Z,2.30
2019-03-11T20:43:46.406Z,1.92
2019-03-11T20:46:15.815Z,2.40
2019-03-11T20:48:45.470Z,2.17
2019-03-11T20:51:15.172Z,3.67
2019-03-11T20:53:45.309Z,2.58
2019-03-11T20:56:14.780Z,3.02
2019-03-11T20:58:44.377Z,2.65
2019-03-11T21:01:14.214Z,3.65
2019-03-11T21:03:43.579Z,3.25
2019-03-11T21:06:13.013Z,6.47
2019-03-11T21:08:45.397Z,2.00
2019-03-11T21:11:13.497Z,3.08
2019-03-11T21:13:42.924Z,3.33
2019-03-11T21:16:12.553Z,2.95
2019-03-11T21:18:41.989Z,4.72
2019-03-11T21:21:11.317Z,8.83
2019-03-11T21:23:40.727Z,4.67
2019-03-11T21:26:10.227Z,2.42
2019-03-11T21:28:39.771Z,5.92
2019-03-11T21:31:09.223Z,4.67
2019-03-11T21:33:38.541Z,1.98
2019-03-11T21:36:07.978Z,3.72
2019-03-11T21:38:37.334Z,4.85
2019-03-11T21:41:06.781Z,5.95
2019-03-11T21:43:36.409Z,2.98
2019-03-11T21:46:05.830Z,3.22
2019-03-11T21:48:35.220Z,3.45
2019-03-11T21:51:04.822Z,2.47
2019-03-11T21:53:34.233Z,4.50
2019-03-11T21:56:03.624Z,2.12
2019-03-11T21:58:33.076Z,2.20
2019-03-11T22:01:02.611Z,2.85
2019-03-11T22:03:32.043Z,4.60
2019-03-11T22:06:01.436Z,3.35
2019-03-11T22:08:30.809Z,4.12
2019-03-11T22:11:00.135Z,4.42
2019-03-11T22:13:29.608Z,2.62
2019-03-11T22:15:58.937Z,1.98
2019-03-11T22:18:28.235Z,1.85
2019-03-11T22:20:57.555Z,3.02
2019-03-11T22:23:26.899Z,4.85
2019-03-11T22:25:57.386Z,2.08
2019-03-11T22:28:26.715Z,2.12
2019-03-11T22:30:56.009Z,2.45
2019-03-11T22:33:26.404Z,2.67
2019-03-11T22:35:55.829Z,2.02
2019-03-11T22:38:25.232Z,2.62
2019-03-11T22:40:54.523Z,3.42
2019-03-11T22:43:23.849Z,2.92
2019-03-11T22:45:53.126Z,2.60
2019-03-11T22:48:22.444Z,3.33
2019-03-11T22:50:51.733Z,3.87
2019-03-11T22:53:21.095Z,4.95
2019-03-11T22:55:50.399Z,5.72
2019-03-11T22:58:30.249Z,2.25
2019-03-11T23:01:01.249Z,2.35
2019-03-11T23:03:32.161Z,2.77
2019-03-11T23:06:01.791Z,2.85
2019-03-11T23:08:31.260Z,2.37
2019-03-11T23:11:00.626Z,2.70
2019-03-11T23:13:29.912Z,1.77
2019-03-11T23:15:59.237Z,5.12
2019-03-11T23:18:28.539Z,2.75
2019-03-11T23:20:57.868Z,2.10
2019-03-11T23:23:27.165Z,5.92
2019-03-11T23:25:56.491Z,3.50
2019-03-11T23:28:27.025Z,4.60
2019-03-11T23:30:56.312Z,3.85
2019-03-11T23:33:25.658Z,4.40
2019-03-11T23:35:55.011Z,7.83
2019-03-11T23:38:24.375Z,4.30
2019-03-11T23:40:53.669Z,3.62
2019-03-11T23:43:23.053Z,2.30
2019-03-11T23:45:52.350Z,2.90
2019-03-11T23:48:21.679Z,3.22
2019-03-11T23:50:51.012Z,3.60
2019-03-11T23:53:20.390Z,3.98
2019-03-11T23:55:49.712Z,5.80
2019-03-11T23:58:19.017Z,3.05
